sensor_id;sensor_type;location;lat;lon;timestamp;P1;durP1;ratioP1;P2;durP2;ratioP2
16524;SDS011;8375;33.594;-117.718;2024-02-26T00:01:34;5.60;;;2.20;;
16524;SDS011;8375;33.594;-117.718;2024-02-26T00:04:02;5.37;;;2.70;;
16524;SDS011;8375;33.594;-117.718;2024-02-26T00:06:33;8.63;;;2.80;;
16524;SDS011;8375;33.594;-117.718;2024-02-26T00:09:02;6.23;;;2.40;;
16524;SDS011;8375;33.594;-117.718;2024-02-26T00:11:32;4.67;;;1.97;;
16524;SDS011;8375;33.594;-117.718;2024-02-26T00:14:00;5.43;;;2.23;;
16524;SDS011;8375;33.594;-117.718;2024-02-26T00:16:29;7.13;;;2.53;;
16524;SDS011;8375;33.594;-117.718;2024-02-26T00:18:58;5.83;;;2.20;;
16524;SDS011;8375;33.594;-117.718;2024-02-26T00:21:28;7.87;;;2.30;;
16524;SDS011;8375;33.594;-117.718;2024-02-26T00:23:57;6.53;;;2.40;;
16524;SDS011;8375;33.594;-117.718;2024-02-26T00:26:25;6.17;;;2.70;;
16524;SDS011;8375;33.594;-117.718;2024-02-26T00:28:54;4.10;;;2.10;;
16524;SDS011;8375;33.594;-117.718;2024-02-26T00:31:22;11.47;;;5.00;;
16524;SDS011;8375;33.594;-117.718;2024-02-26T00:33:51;10.17;;;4.20;;
16524;SDS011;8375;33.594;-117.718;2024-02-26T00:36:20;18.53;;;11.33;;
16524;SDS011;8375;33.594;-117.718;2024-02-26T00:38:50;6.33;;;3.30;;
16524;SDS011;8375;33.594;-117.718;2024-02-26T00:41:20;6.97;;;2.47;;
16524;SDS011;8375;33.594;-117.718;2024-02-26T00:43:49;8.20;;;2.73;;
16524;SDS011;8375;33.594;-117.718;2024-02-26T00:46:17;8.07;;;2.50;;
16524;SDS011;8375;33.594;-117.718;2024-02-26T00:48:46;6.90;;;2.90;;
16524;SDS011;8375;33.594;-117.718;2024-02-26T00:51:14;7.57;;;2.53;;
16524;SDS011;8375;33.594;-117.718;2024-02-26T00:53:43;5.70;;;2.63;;
16524;SDS011;8375;33.594;-117.718;2024-02-26T00:56:13;6.73;;;3.20;;
16524;SDS011;8375;33.594;-117.718;2024-02-26T00:58:42;7.53;;;2.90;;
16524;SDS011;8375;33.594;-117.718;2024-02-26T01:01:10;5.23;;;2.87;;
16524;SDS011;8375;33.594;-117.718;2024-02-26T01:03:39;6.70;;;3.40;;
16524;SDS011;8375;33.594;-117.718;2024-02-26T01:06:08;7.60;;;3.73;;
16524;SDS011;8375;33.594;-117.718;2024-02-26T01:08:36;5.50;;;2.80;;
16524;SDS011;8375;33.594;-117.718;2024-02-26T01:11:05;8.57;;;4.70;;
16524;SDS011;8375;33.594;-117.718;2024-02-26T01:13:35;6.50;;;3.13;;
16524;SDS011;8375;33.594;-117.718;2024-02-26T01:16:04;8.63;;;6.13;;
16524;SDS011;8375;33.594;-117.718;2024-02-26T01:18:33;9.97;;;7.00;;
16524;SDS011;8375;33.594;-117.718;2024-02-26T01:21:02;13.87;;;11.77;;
16524;SDS011;8375;33.594;-117.718;2024-02-26T01:23:34;9.60;;;5.80;;
16524;SDS011;8375;33.594;-117.718;2024-02-26T01:26:03;9.30;;;5.50;;
16524;SDS011;8375;33.594;-117.718;2024-02-26T01:28:31;11.97;;;6.07;;
16524;SDS011;8375;33.594;-117.718;2024-02-26T01:31:02;32.63;;;14.60;;
16524;SDS011;8375;33.594;-117.718;2024-02-26T01:33:33;12.60;;;6.57;;
16524;SDS011;8375;33.594;-117.718;2024-02-26T01:36:02;8.17;;;4.90;;
16524;SDS011;8375;33.594;-117.718;2024-02-26T01:38:30;8.50;;;4.27;;
16524;SDS011;8375;33.594;-117.718;2024-02-26T01:40:59;6.17;;;3.30;;
16524;SDS011;8375;33.594;-117.718;2024-02-26T01:43:28;6.37;;;3.23;;
16524;SDS011;8375;33.594;-117.718;2024-02-26T01:45:56;12.10;;;4.20;;
16524;SDS011;8375;33.594;-117.718;2024-02-26T01:48:27;9.83;;;4.47;;
16524;SDS011;8375;33.594;-117.718;2024-02-26T01:50:56;9.17;;;4.20;;
16524;SDS011;8375;33.594;-117.718;2024-02-26T01:53:25;9.13;;;3.17;;
16524;SDS011;8375;33.594;-117.718;2024-02-26T01:55:53;5.37;;;3.30;;
16524;SDS011;8375;33.594;-117.718;2024-02-26T01:58:22;5.30;;;2.30;;
16524;SDS011;8375;33.594;-117.718;2024-02-26T02:00:51;4.53;;;2.70;;
16524;SDS011;8375;33.594;-117.718;2024-02-26T02:03:20;9.20;;;3.00;;
16524;SDS011;8375;33.594;-117.718;2024-02-26T02:05:50;5.87;;;2.67;;
16524;SDS011;8375;33.594;-117.718;2024-02-26T02:08:19;5.60;;;2.80;;
16524;SDS011;8375;33.594;-117.718;2024-02-26T02:10:49;6.13;;;3.00;;
16524;SDS011;8375;33.594;-117.718;2024-02-26T02:13:18;5.57;;;2.73;;
16524;SDS011;8375;33.594;-117.718;2024-02-26T02:15:47;3.97;;;2.30;;
16524;SDS011;8375;33.594;-117.718;2024-02-26T02:18:15;5.97;;;2.70;;
16524;SDS011;8375;33.594;-117.718;2024-02-26T02:20:46;6.17;;;2.57;;
16524;SDS011;8375;33.594;-117.718;2024-02-26T02:23:15;4.00;;;2.30;;
16524;SDS011;8375;33.594;-117.718;2024-02-26T02:25:43;5.27;;;3.00;;
16524;SDS011;8375;33.594;-117.718;2024-02-26T02:28:12;5.80;;;2.80;;
16524;SDS011;8375;33.594;-117.718;2024-02-26T02:30:41;5.33;;;2.83;;
16524;SDS011;8375;33.594;-117.718;2024-02-26T02:33:09;3.83;;;2.13;;
16524;SDS011;8375;33.594;-117.718;2024-02-26T02:35:39;5.47;;;2.70;;
16524;SDS011;8375;33.594;-117.718;2024-02-26T02:38:09;3.50;;;2.50;;
16524;SDS011;8375;33.594;-117.718;2024-02-26T02:40:37;4.50;;;2.30;;
16524;SDS011;8375;33.594;-117.718;2024-02-26T02:43:06;3.97;;;2.30;;
16524;SDS011;8375;33.594;-117.718;2024-02-26T02:45:35;7.17;;;2.53;;
16524;SDS011;8375;33.594;-117.718;2024-02-26T02:48:03;4.57;;;2.67;;
16524;SDS011;8375;33.594;-117.718;2024-02-26T02:50:32;5.60;;;2.20;;
16524;SDS011;8375;33.594;-117.718;2024-02-26T02:53:01;4.47;;;2.30;;
16524;SDS011;8375;33.594;-117.718;2024-02-26T02:55:31;5.13;;;2.40;;
16524;SDS011;8375;33.594;-117.718;2024-02-26T02:58:00;4.63;;;2.27;;
16524;SDS011;8375;33.594;-117.718;2024-02-26T03:00:28;7.50;;;2.80;;
16524;SDS011;8375;33.594;-117.718;2024-02-26T03:02:57;6.23;;;3.27;;
16524;SDS011;8375;33.594;-117.718;2024-02-26T03:05:26;5.00;;;2.43;;
16524;SDS011;8375;33.594;-117.718;2024-02-26T03:07:54;4.67;;;2.60;;
16524;SDS011;8375;33.594;-117.718;2024-02-26T03:10:23;3.33;;;2.20;;
16524;SDS011;8375;33.594;-117.718;2024-02-26T03:12:53;4.87;;;2.60;;
16524;SDS011;8375;33.594;-117.718;2024-02-26T03:15:22;4.27;;;2.47;;
16524;SDS011;8375;33.594;-117.718;2024-02-26T03:17:51;6.03;;;2.90;;
16524;SDS011;8375;33.594;-117.718;2024-02-26T03:20:19;6.67;;;2.47;;
16524;SDS011;8375;33.594;-117.718;2024-02-26T03:22:48;5.10;;;2.40;;
16524;SDS011;8375;33.594;-117.718;2024-02-26T03:25:16;6.33;;;2.23;;
16524;SDS011;8375;33.594;-117.718;2024-02-26T03:27:45;4.30;;;2.50;;
16524;SDS011;8375;33.594;-117.718;2024-02-26T03:30:16;3.83;;;2.40;;
16524;SDS011;8375;33.594;-117.718;2024-02-26T03:32:44;4.80;;;2.33;;
16524;SDS011;8375;33.594;-117.718;2024-02-26T03:35:13;5.37;;;2.37;;
16524;SDS011;8375;33.594;-117.718;2024-02-26T03:37:42;3.77;;;2.50;;
16524;SDS011;8375;33.594;-117.718;2024-02-26T03:40:11;4.90;;;2.53;;
16524;SDS011;8375;33.594;-117.718;2024-02-26T03:42:40;4.20;;;2.27;;
16524;SDS011;8375;33.594;-117.718;2024-02-26T03:45:09;3.70;;;2.07;;
16524;SDS011;8375;33.594;-117.718;2024-02-26T03:47:39;5.23;;;2.37;;
16524;SDS011;8375;33.594;-117.718;2024-02-26T03:50:08;5.37;;;2.40;;
16524;SDS011;8375;33.594;-117.718;2024-02-26T03:52:37;3.37;;;2.70;;
16524;SDS011;8375;33.594;-117.718;2024-02-26T03:55:06;4.60;;;2.90;;
16524;SDS011;8375;33.594;-117.718;2024-02-26T03:57:35;7.47;;;2.90;;
16524;SDS011;8375;33.594;-117.718;2024-02-26T04:00:04;5.23;;;2.90;;
16524;SDS011;8375;33.594;-117.718;2024-02-26T04:02:34;5.43;;;2.70;;
16524;SDS011;8375;33.594;-117.718;2024-02-26T04:05:08;7.67;;;2.60;;
16524;SDS011;8375;33.594;-117.718;2024-02-26T04:07:37;4.33;;;2.70;;
16524;SDS011;8375;33.594;-117.718;2024-02-26T04:10:08;4.00;;;2.40;;
16524;SDS011;8375;33.594;-117.718;2024-02-26T04:12:38;5.33;;;2.63;;
16524;SDS011;8375;33.594;-117.718;2024-02-26T04:15:08;3.90;;;2.13;;
16524;SDS011;8375;33.594;-117.718;2024-02-26T04:17:37;6.63;;;2.50;;
16524;SDS011;8375;33.594;-117.718;2024-02-26T04:20:12;5.37;;;2.77;;
16524;SDS011;8375;33.594;-117.718;2024-02-26T04:22:42;6.13;;;2.43;;
16524;SDS011;8375;33.594;-117.718;2024-02-26T04:25:11;4.03;;;2.67;;
16524;SDS011;8375;33.594;-117.718;2024-02-26T04:27:40;4.50;;;2.40;;
16524;SDS011;8375;33.594;-117.718;2024-02-26T04:30:09;4.70;;;2.27;;
16524;SDS011;8375;33.594;-117.718;2024-02-26T04:32:38;4.67;;;2.20;;
16524;SDS011;8375;33.594;-117.718;2024-02-26T04:35:09;7.30;;;2.93;;
16524;SDS011;8375;33.594;-117.718;2024-02-26T04:37:38;3.63;;;2.67;;
16524;SDS011;8375;33.594;-117.718;2024-02-26T04:40:07;5.47;;;2.43;;
16524;SDS011;8375;33.594;-117.718;2024-02-26T04:42:36;6.73;;;2.90;;
16524;SDS011;8375;33.594;-117.718;2024-02-26T04:45:05;8.27;;;2.63;;
16524;SDS011;8375;33.594;-117.718;2024-02-26T04:47:34;5.03;;;2.97;;
16524;SDS011;8375;33.594;-117.718;2024-02-26T04:50:03;6.07;;;2.70;;
16524;SDS011;8375;33.594;-117.718;2024-02-26T04:52:37;5.37;;;3.00;;
16524;SDS011;8375;33.594;-117.718;2024-02-26T04:55:09;10.30;;;3.17;;
16524;SDS011;8375;33.594;-117.718;2024-02-26T04:57:38;5.67;;;3.20;;
16524;SDS011;8375;33.594;-117.718;2024-02-26T05:00:07;6.23;;;2.87;;
16524;SDS011;8375;33.594;-117.718;2024-02-26T05:02:36;6.50;;;3.20;;
16524;SDS011;8375;33.594;-117.718;2024-02-26T05:05:05;4.77;;;3.10;;
16524;SDS011;8375;33.594;-117.718;2024-02-26T05:07:36;6.60;;;3.03;;
16524;SDS011;8375;33.594;-117.718;2024-02-26T05:10:09;14.57;;;5.23;;
16524;SDS011;8375;33.594;-117.718;2024-02-26T05:12:38;5.47;;;3.40;;
16524;SDS011;8375;33.594;-117.718;2024-02-26T05:15:08;7.77;;;3.17;;
16524;SDS011;8375;33.594;-117.718;2024-02-26T05:17:41;5.27;;;3.10;;
16524;SDS011;8375;33.594;-117.718;2024-02-26T05:20:10;8.27;;;3.53;;
16524;SDS011;8375;33.594;-117.718;2024-02-26T05:22:40;4.37;;;3.30;;
16524;SDS011;8375;33.594;-117.718;2024-02-26T05:25:10;6.03;;;3.20;;
16524;SDS011;8375;33.594;-117.718;2024-02-26T05:27:38;6.07;;;3.60;;
16524;SDS011;8375;33.594;-117.718;2024-02-26T05:30:07;7.10;;;3.50;;
16524;SDS011;8375;33.594;-117.718;2024-02-26T05:32:37;7.07;;;3.27;;
16524;SDS011;8375;33.594;-117.718;2024-02-26T05:35:06;6.10;;;3.20;;
16524;SDS011;8375;33.594;-117.718;2024-02-26T05:37:35;6.20;;;3.30;;
16524;SDS011;8375;33.594;-117.718;2024-02-26T05:40:06;4.83;;;3.60;;
16524;SDS011;8375;33.594;-117.718;2024-02-26T05:42:35;6.20;;;3.60;;
16524;SDS011;8375;33.594;-117.718;2024-02-26T05:45:04;6.87;;;3.53;;
16524;SDS011;8375;33.594;-117.718;2024-02-26T05:47:34;7.20;;;3.60;;
16524;SDS011;8375;33.594;-117.718;2024-02-26T05:50:08;6.70;;;3.73;;
16524;SDS011;8375;33.594;-117.718;2024-02-26T05:52:38;8.40;;;3.90;;
16524;SDS011;8375;33.594;-117.718;2024-02-26T05:55:10;6.90;;;4.60;;
16524;SDS011;8375;33.594;-117.718;2024-02-26T05:57:43;10.27;;;4.40;;
16524;SDS011;8375;33.594;-117.718;2024-02-26T06:00:12;6.60;;;3.53;;
16524;SDS011;8375;33.594;-117.718;2024-02-26T06:02:41;5.33;;;3.57;;
16524;SDS011;8375;33.594;-117.718;2024-02-26T06:05:10;5.70;;;3.93;;
16524;SDS011;8375;33.594;-117.718;2024-02-26T06:07:38;6.80;;;3.77;;
16524;SDS011;8375;33.594;-117.718;2024-02-26T06:10:07;6.47;;;4.00;;
16524;SDS011;8375;33.594;-117.718;2024-02-26T06:12:39;5.77;;;4.53;;
16524;SDS011;8375;33.594;-117.718;2024-02-26T06:15:08;7.10;;;5.00;;
16524;SDS011;8375;33.594;-117.718;2024-02-26T06:17:37;6.50;;;4.10;;
16524;SDS011;8375;33.594;-117.718;2024-02-26T06:20:06;7.20;;;4.50;;
16524;SDS011;8375;33.594;-117.718;2024-02-26T06:22:38;5.83;;;4.53;;
16524;SDS011;8375;33.594;-117.718;2024-02-26T06:25:08;7.60;;;4.13;;
16524;SDS011;8375;33.594;-117.718;2024-02-26T06:27:38;8.17;;;4.73;;
16524;SDS011;8375;33.594;-117.718;2024-02-26T06:30:07;7.47;;;4.77;;
16524;SDS011;8375;33.594;-117.718;2024-02-26T06:32:36;9.03;;;4.60;;
16524;SDS011;8375;33.594;-117.718;2024-02-26T06:35:05;9.37;;;4.40;;
16524;SDS011;8375;33.594;-117.718;2024-02-26T06:37:35;10.23;;;4.80;;
16524;SDS011;8375;33.594;-117.718;2024-02-26T06:40:07;6.73;;;4.70;;
16524;SDS011;8375;33.594;-117.718;2024-02-26T06:42:38;8.03;;;5.33;;
16524;SDS011;8375;33.594;-117.718;2024-02-26T06:45:09;5.07;;;4.57;;
16524;SDS011;8375;33.594;-117.718;2024-02-26T06:47:37;5.40;;;4.47;;
16524;SDS011;8375;33.594;-117.718;2024-02-26T06:50:06;9.33;;;5.13;;
16524;SDS011;8375;33.594;-117.718;2024-02-26T06:52:35;8.00;;;4.60;;
16524;SDS011;8375;33.594;-117.718;2024-02-26T06:55:04;7.70;;;4.80;;
16524;SDS011;8375;33.594;-117.718;2024-02-26T06:57:35;6.33;;;5.20;;
16524;SDS011;8375;33.594;-117.718;2024-02-26T07:00:05;8.67;;;5.23;;
16524;SDS011;8375;33.594;-117.718;2024-02-26T07:02:34;7.00;;;5.07;;
16524;SDS011;8375;33.594;-117.718;2024-02-26T07:05:03;8.70;;;5.37;;
16524;SDS011;8375;33.594;-117.718;2024-02-26T07:07:34;7.43;;;4.67;;
16524;SDS011;8375;33.594;-117.718;2024-02-26T07:10:03;9.90;;;4.70;;
16524;SDS011;8375;33.594;-117.718;2024-02-26T07:12:33;8.27;;;5.10;;
16524;SDS011;8375;33.594;-117.718;2024-02-26T07:15:07;6.37;;;4.77;;
16524;SDS011;8375;33.594;-117.718;2024-02-26T07:17:37;6.57;;;5.23;;
16524;SDS011;8375;33.594;-117.718;2024-02-26T07:20:07;11.23;;;6.20;;
16524;SDS011;8375;33.594;-117.718;2024-02-26T07:22:37;6.17;;;5.10;;
16524;SDS011;8375;33.594;-117.718;2024-02-26T07:25:05;9.07;;;5.83;;
16524;SDS011;8375;33.594;-117.718;2024-02-26T07:27:40;10.33;;;5.93;;
16524;SDS011;8375;33.594;-117.718;2024-02-26T07:30:09;9.90;;;6.53;;
16524;SDS011;8375;33.594;-117.718;2024-02-26T07:32:38;10.33;;;6.10;;
16524;SDS011;8375;33.594;-117.718;2024-02-26T07:35:10;10.67;;;5.90;;
16524;SDS011;8375;33.594;-117.718;2024-02-26T07:37:39;14.03;;;6.10;;
16524;SDS011;8375;33.594;-117.718;2024-02-26T07:40:08;7.37;;;5.90;;
16524;SDS011;8375;33.594;-117.718;2024-02-26T07:42:37;8.47;;;5.43;;
16524;SDS011;8375;33.594;-117.718;2024-02-26T07:45:09;6.73;;;5.70;;
16524;SDS011;8375;33.594;-117.718;2024-02-26T07:47:38;10.50;;;5.57;;
16524;SDS011;8375;33.594;-117.718;2024-02-26T07:50:07;8.53;;;5.90;;
16524;SDS011;8375;33.594;-117.718;2024-02-26T09:30:13;9.30;;;7.00;;
16524;SDS011;8375;33.594;-117.718;2024-02-26T09:32:45;8.93;;;6.53;;
16524;SDS011;8375;33.594;-117.718;2024-02-26T09:35:14;10.90;;;6.80;;
16524;SDS011;8375;33.594;-117.718;2024-02-26T09:37:43;13.37;;;7.77;;
16524;SDS011;8375;33.594;-117.718;2024-02-26T09:40:12;11.37;;;7.50;;
16524;SDS011;8375;33.594;-117.718;2024-02-26T09:42:42;12.40;;;7.30;;
16524;SDS011;8375;33.594;-117.718;2024-02-26T09:45:17;8.03;;;7.07;;
16524;SDS011;8375;33.594;-117.718;2024-02-26T09:47:49;10.17;;;7.50;;
16524;SDS011;8375;33.594;-117.718;2024-02-26T09:50:20;9.63;;;8.07;;
16524;SDS011;8375;33.594;-117.718;2024-02-26T09:52:49;10.43;;;7.60;;
16524;SDS011;8375;33.594;-117.718;2024-02-26T09:55:19;10.93;;;7.63;;
16524;SDS011;8375;33.594;-117.718;2024-02-26T09:57:48;10.37;;;8.00;;
16524;SDS011;8375;33.594;-117.718;2024-02-26T10:00:20;10.70;;;8.23;;
16524;SDS011;8375;33.594;-117.718;2024-02-26T10:02:49;10.80;;;8.10;;
16524;SDS011;8375;33.594;-117.718;2024-02-26T10:05:23;12.77;;;8.30;;
16524;SDS011;8375;33.594;-117.718;2024-02-26T10:07:52;10.23;;;8.33;;
16524;SDS011;8375;33.594;-117.718;2024-02-26T10:10:21;15.87;;;9.70;;
16524;SDS011;8375;33.594;-117.718;2024-02-26T10:12:51;12.10;;;9.57;;
16524;SDS011;8375;33.594;-117.718;2024-02-26T10:15:21;11.93;;;8.10;;
16524;SDS011;8375;33.594;-117.718;2024-02-26T10:17:50;9.47;;;8.57;;
16524;SDS011;8375;33.594;-117.718;2024-02-26T10:20:18;8.60;;;7.80;;
16524;SDS011;8375;33.594;-117.718;2024-02-26T10:22:49;8.37;;;7.57;;
16524;SDS011;8375;33.594;-117.718;2024-02-26T10:25:18;10.13;;;7.97;;
16524;SDS011;8375;33.594;-117.718;2024-02-26T10:27:47;8.53;;;7.63;;
16524;SDS011;8375;33.594;-117.718;2024-02-26T10:30:16;9.90;;;8.90;;
16524;SDS011;8375;33.594;-117.718;2024-02-26T10:32:47;10.67;;;7.50;;
16524;SDS011;8375;33.594;-117.718;2024-02-26T10:35:17;9.40;;;8.00;;
16524;SDS011;8375;33.594;-117.718;2024-02-26T10:37:46;9.80;;;8.37;;
16524;SDS011;8375;33.594;-117.718;2024-02-26T10:40:17;10.43;;;7.93;;
16524;SDS011;8375;33.594;-117.718;2024-02-26T10:42:46;8.83;;;7.60;;
16524;SDS011;8375;33.594;-117.718;2024-02-26T10:45:14;9.77;;;7.73;;
16524;SDS011;8375;33.594;-117.718;2024-02-26T10:47:43;8.87;;;7.57;;
16524;SDS011;8375;33.594;-117.718;2024-02-26T10:50:15;10.40;;;8.17;;
16524;SDS011;8375;33.594;-117.718;2024-02-26T10:52:44;10.53;;;8.20;;
16524;SDS011;8375;33.594;-117.718;2024-02-26T10:55:13;11.73;;;8.17;;
16524;SDS011;8375;33.594;-117.718;2024-02-26T10:57:44;9.73;;;8.17;;
16524;SDS011;8375;33.594;-117.718;2024-02-26T11:00:15;8.83;;;7.40;;
16524;SDS011;8375;33.594;-117.718;2024-02-26T11:02:47;9.60;;;7.93;;
16524;SDS011;8375;33.594;-117.718;2024-02-26T11:05:19;10.00;;;7.93;;
16524;SDS011;8375;33.594;-117.718;2024-02-26T11:07:48;8.57;;;7.80;;
16524;SDS011;8375;33.594;-117.718;2024-02-26T11:10:17;10.03;;;8.27;;
16524;SDS011;8375;33.594;-117.718;2024-02-26T11:12:47;9.57;;;8.43;;
16524;SDS011;8375;33.594;-117.718;2024-02-26T11:15:17;11.50;;;8.73;;
16524;SDS011;8375;33.594;-117.718;2024-02-26T11:17:47;11.17;;;8.00;;
16524;SDS011;8375;33.594;-117.718;2024-02-26T11:20:16;10.97;;;7.80;;
16524;SDS011;8375;33.594;-117.718;2024-02-26T11:22:47;13.80;;;8.07;;
16524;SDS011;8375;33.594;-117.718;2024-02-26T11:25:16;9.97;;;8.60;;
16524;SDS011;8375;33.594;-117.718;2024-02-26T11:27:46;10.87;;;8.13;;
16524;SDS011;8375;33.594;-117.718;2024-02-26T11:30:18;10.93;;;7.50;;
16524;SDS011;8375;33.594;-117.718;2024-02-26T11:32:50;12.17;;;8.60;;
16524;SDS011;8375;33.594;-117.718;2024-02-26T11:35:21;12.37;;;8.17;;
16524;SDS011;8375;33.594;-117.718;2024-02-26T11:37:55;14.00;;;8.40;;
16524;SDS011;8375;33.594;-117.718;2024-02-26T11:40:26;10.57;;;8.27;;
16524;SDS011;8375;33.594;-117.718;2024-02-26T11:42:55;11.83;;;8.10;;
16524;SDS011;8375;33.594;-117.718;2024-02-26T11:48:21;11.63;;;8.00;;
16524;SDS011;8375;33.594;-117.718;2024-02-26T11:53:28;11.13;;;7.83;;
16524;SDS011;8375;33.594;-117.718;2024-02-26T11:56:13;9.73;;;7.47;;
16524;SDS011;8375;33.594;-117.718;2024-02-26T11:59:02;11.27;;;7.93;;
16524;SDS011;8375;33.594;-117.718;2024-02-26T12:01:42;13.10;;;9.03;;
16524;SDS011;8375;33.594;-117.718;2024-02-26T12:04:14;11.73;;;8.97;;
16524;SDS011;8375;33.594;-117.718;2024-02-26T12:06:44;11.13;;;8.67;;
16524;SDS011;8375;33.594;-117.718;2024-02-26T12:35:35;10.17;;;8.63;;
16524;SDS011;8375;33.594;-117.718;2024-02-26T12:38:04;11.17;;;8.83;;
16524;SDS011;8375;33.594;-117.718;2024-02-26T12:40:33;10.07;;;7.63;;
16524;SDS011;8375;33.594;-117.718;2024-02-26T12:43:02;9.10;;;7.97;;
16524;SDS011;8375;33.594;-117.718;2024-02-26T12:45:31;12.93;;;9.07;;
16524;SDS011;8375;33.594;-117.718;2024-02-26T12:47:59;11.07;;;8.80;;
16524;SDS011;8375;33.594;-117.718;2024-02-26T12:50:28;10.50;;;8.70;;
16524;SDS011;8375;33.594;-117.718;2024-02-26T12:52:59;13.77;;;9.93;;
16524;SDS011;8375;33.594;-117.718;2024-02-26T12:55:28;13.20;;;8.97;;
16524;SDS011;8375;33.594;-117.718;2024-02-26T12:57:59;10.47;;;9.53;;
16524;SDS011;8375;33.594;-117.718;2024-02-26T13:00:31;11.67;;;10.17;;
16524;SDS011;8375;33.594;-117.718;2024-02-26T13:03:00;13.30;;;9.60;;
16524;SDS011;8375;33.594;-117.718;2024-02-26T13:05:28;12.40;;;9.47;;
16524;SDS011;8375;33.594;-117.718;2024-02-26T13:07:59;15.07;;;10.83;;
16524;SDS011;8375;33.594;-117.718;2024-02-26T13:10:28;15.27;;;11.47;;
16524;SDS011;8375;33.594;-117.718;2024-02-26T13:12:57;14.03;;;11.63;;
16524;SDS011;8375;33.594;-117.718;2024-02-26T13:15:29;13.90;;;11.67;;
16524;SDS011;8375;33.594;-117.718;2024-02-26T13:17:58;17.87;;;10.97;;
16524;SDS011;8375;33.594;-117.718;2024-02-26T13:20:37;14.27;;;11.63;;
16524;SDS011;8375;33.594;-117.718;2024-02-26T13:23:10;15.73;;;11.67;;
16524;SDS011;8375;33.594;-117.718;2024-02-26T13:25:40;12.90;;;11.40;;
16524;SDS011;8375;33.594;-117.718;2024-02-26T13:28:08;19.33;;;12.83;;
16524;SDS011;8375;33.594;-117.718;2024-02-26T13:30:41;13.47;;;12.07;;
16524;SDS011;8375;33.594;-117.718;2024-02-26T13:33:17;13.40;;;11.37;;
16524;SDS011;8375;33.594;-117.718;2024-02-26T13:35:46;15.60;;;11.93;;
16524;SDS011;8375;33.594;-117.718;2024-02-26T13:38:16;17.33;;;12.13;;
16524;SDS011;8375;33.594;-117.718;2024-02-26T13:40:45;13.97;;;11.97;;
16524;SDS011;8375;33.594;-117.718;2024-02-26T13:43:14;17.20;;;12.50;;
16524;SDS011;8375;33.594;-117.718;2024-02-26T13:45:43;15.57;;;12.53;;
16524;SDS011;8375;33.594;-117.718;2024-02-26T13:48:11;13.43;;;11.90;;
16524;SDS011;8375;33.594;-117.718;2024-02-26T13:50:41;15.63;;;11.77;;
16524;SDS011;8375;33.594;-117.718;2024-02-26T13:53:10;14.13;;;11.97;;
16524;SDS011;8375;33.594;-117.718;2024-02-26T13:55:41;17.27;;;12.77;;
16524;SDS011;8375;33.594;-117.718;2024-02-26T13:58:11;15.97;;;12.40;;
16524;SDS011;8375;33.594;-117.718;2024-02-26T14:00:40;13.27;;;11.47;;
16524;SDS011;8375;33.594;-117.718;2024-02-26T14:03:09;14.67;;;11.53;;
16524;SDS011;8375;33.594;-117.718;2024-02-26T14:05:38;19.63;;;12.60;;
16524;SDS011;8375;33.594;-117.718;2024-02-26T14:08:06;17.43;;;13.13;;
16524;SDS011;8375;33.594;-117.718;2024-02-26T14:10:35;13.77;;;10.93;;
16524;SDS011;8375;33.594;-117.718;2024-02-26T14:13:05;14.33;;;11.40;;
16524;SDS011;8375;33.594;-117.718;2024-02-26T14:15:34;15.37;;;11.63;;
16524;SDS011;8375;33.594;-117.718;2024-02-26T14:18:05;13.63;;;11.50;;
16524;SDS011;8375;33.594;-117.718;2024-02-26T14:20:35;12.43;;;11.23;;
16524;SDS011;8375;33.594;-117.718;2024-02-26T14:23:04;16.63;;;11.67;;
16524;SDS011;8375;33.594;-117.718;2024-02-26T14:25:34;16.43;;;11.87;;
16524;SDS011;8375;33.594;-117.718;2024-02-26T14:28:02;13.97;;;11.60;;
16524;SDS011;8375;33.594;-117.718;2024-02-26T14:30:33;12.60;;;11.37;;
16524;SDS011;8375;33.594;-117.718;2024-02-26T14:33:02;12.37;;;10.97;;
16524;SDS011;8375;33.594;-117.718;2024-02-26T14:35:30;13.40;;;11.13;;
16524;SDS011;8375;33.594;-117.718;2024-02-26T14:37:59;13.73;;;12.03;;
16524;SDS011;8375;33.594;-117.718;2024-02-26T14:40:28;14.97;;;11.07;;
16524;SDS011;8375;33.594;-117.718;2024-02-26T14:42:57;15.23;;;11.27;;
16524;SDS011;8375;33.594;-117.718;2024-02-26T14:45:28;13.47;;;12.07;;
16524;SDS011;8375;33.594;-117.718;2024-02-26T14:47:57;15.33;;;11.80;;
16524;SDS011;8375;33.594;-117.718;2024-02-26T14:50:26;11.77;;;10.57;;
16524;SDS011;8375;33.594;-117.718;2024-02-26T14:52:55;12.03;;;10.83;;
16524;SDS011;8375;33.594;-117.718;2024-02-26T14:55:24;13.93;;;10.60;;
16524;SDS011;8375;33.594;-117.718;2024-02-26T14:57:52;11.80;;;10.53;;
16524;SDS011;8375;33.594;-117.718;2024-02-26T15:00:21;18.07;;;13.57;;
16524;SDS011;8375;33.594;-117.718;2024-02-26T15:02:51;22.17;;;15.03;;
16524;SDS011;8375;33.594;-117.718;2024-02-26T15:05:21;20.37;;;14.57;;
16524;SDS011;8375;33.594;-117.718;2024-02-26T15:07:50;17.63;;;13.87;;
16524;SDS011;8375;33.594;-117.718;2024-02-26T15:10:18;16.90;;;13.23;;
16524;SDS011;8375;33.594;-117.718;2024-02-26T15:12:47;14.03;;;12.53;;
16524;SDS011;8375;33.594;-117.718;2024-02-26T15:15:16;16.43;;;13.13;;
16524;SDS011;8375;33.594;-117.718;2024-02-26T15:17:45;14.57;;;12.77;;
16524;SDS011;8375;33.594;-117.718;2024-02-26T15:20:16;16.63;;;12.97;;
16524;SDS011;8375;33.594;-117.718;2024-02-26T15:22:47;16.30;;;13.47;;
16524;SDS011;8375;33.594;-117.718;2024-02-26T15:25:16;14.20;;;12.20;;
16524;SDS011;8375;33.594;-117.718;2024-02-26T15:27:45;14.97;;;12.87;;
16524;SDS011;8375;33.594;-117.718;2024-02-26T15:30:14;16.10;;;12.00;;
16524;SDS011;8375;33.594;-117.718;2024-02-26T15:32:43;14.73;;;13.20;;
16524;SDS011;8375;33.594;-117.718;2024-02-26T15:35:12;14.20;;;11.60;;
16524;SDS011;8375;33.594;-117.718;2024-02-26T15:37:42;18.20;;;13.10;;
16524;SDS011;8375;33.594;-117.718;2024-02-26T15:40:11;17.07;;;13.70;;
16524;SDS011;8375;33.594;-117.718;2024-02-26T15:42:40;15.27;;;13.07;;
16524;SDS011;8375;33.594;-117.718;2024-02-26T15:45:09;15.47;;;13.87;;
16524;SDS011;8375;33.594;-117.718;2024-02-26T15:47:37;16.63;;;13.10;;
16524;SDS011;8375;33.594;-117.718;2024-02-26T15:50:06;19.33;;;13.13;;
16524;SDS011;8375;33.594;-117.718;2024-02-26T15:52:36;18.17;;;13.30;;
16524;SDS011;8375;33.594;-117.718;2024-02-26T15:55:07;14.53;;;13.00;;
16524;SDS011;8375;33.594;-117.718;2024-02-26T15:57:38;16.93;;;12.83;;
16524;SDS011;8375;33.594;-117.718;2024-02-26T16:00:10;15.70;;;13.03;;
16524;SDS011;8375;33.594;-117.718;2024-02-26T16:02:43;16.47;;;13.53;;
16524;SDS011;8375;33.594;-117.718;2024-02-26T16:05:16;19.13;;;13.50;;
16524;SDS011;8375;33.594;-117.718;2024-02-26T16:07:47;18.23;;;13.67;;
16524;SDS011;8375;33.594;-117.718;2024-02-26T16:10:20;14.87;;;13.47;;
16524;SDS011;8375;33.594;-117.718;2024-02-26T16:12:53;18.20;;;13.67;;
16524;SDS011;8375;33.594;-117.718;2024-02-26T16:15:24;17.13;;;14.17;;
16524;SDS011;8375;33.594;-117.718;2024-02-26T16:17:56;14.80;;;13.30;;
16524;SDS011;8375;33.594;-117.718;2024-02-26T16:20:25;15.93;;;14.17;;
16524;SDS011;8375;33.594;-117.718;2024-02-26T16:22:55;18.17;;;14.67;;
16524;SDS011;8375;33.594;-117.718;2024-02-26T16:25:25;15.07;;;13.37;;
16524;SDS011;8375;33.594;-117.718;2024-02-26T16:27:54;16.10;;;13.67;;
16524;SDS011;8375;33.594;-117.718;2024-02-26T16:30:23;16.30;;;13.03;;
16524;SDS011;8375;33.594;-117.718;2024-02-26T16:32:51;15.67;;;12.67;;
16524;SDS011;8375;33.594;-117.718;2024-02-26T16:35:20;17.03;;;11.63;;
16524;SDS011;8375;33.594;-117.718;2024-02-26T16:37:49;15.50;;;11.27;;